RJBBNWWW

Guest
Details From RJBB - Kansai Intl
To NWWW - Noumea La Tontouta
Flight Number -
Tags Generated
Created
Modified
Stats Distance 3,822 nm / 7,079 km
Max Altitude 0 ft / 0 m
Waypoints 4
Social Downloads 0
Likes 0
Share VATSIM

Download

Looking for another format? Having issues loading an existing format? Contact us
Advertisement - Login to hide

Notes

Generated

Route

RJBB IJT98 BASAR NWWW

ID Type Via Altitude Latitude Longitude Leg Dist Tot Dist Heading (true) Name
O RJBB APT - 0 ft / 0 m 34.41738˚ 135.22928˚ - 0 nm - -
IJT98 FIX - 0 ft / 0 m 24.89741˚ 141.70046˚ 663 nm 663 nm 148° / 151° -
BASAR FIX - 0 ft / 0 m -21.73833˚ 166.07000˚ 3140 nm 3804 nm 151° / 152° -
O NWWW APT - 0 ft / 0 m -22.00756˚ 166.20102˚ 17 nm 3822 nm 156° / 156° -

Altitude Profile

Advertisement - Login to hide

Weather


0- 5 10 15 20 25 30 35+ Temperature / ° C

Clouds and Precipitation
Forecast for 2017-12-11 12:00 UTC. Updated 44 minutes ago

Ground ~20,000 ft ~40,000 ft Winds

RJBB

Details ICAO RJBB (KIX)
Name KANSAI INTL
Region Japan
Timezone Asia/Tokyo (UTC+9.0)
Stats Elevation 26 ft / 8 m (AMSL)
Location 34.433619° 135.233598°
Runways 2
Magnetic Variation 7.580° W

METAR

RJBB 111000Z 28025KT 9999 FEW025 SCT040 07/M03 Q1015 TEMPO 28025G35KT

Decode

TAF

TAF AMD RJBB 110720Z 1107/1212 28030KT 9999 FEW015 BKN040 TEMPO 1107/1115 28034G45KT TEMPO 1118/1203 28025G35KT

Decode

Departure Runways

ID Width Length Bearing (true) Bearing (mag) Surface Threshold Offset Overrun Length
06L 200 ft / 61 m 13,121 ft / 3,999 m 50.86° 58.44° Asphalt 0 ft / 0 m 200 ft / 61 m
06R 200 ft / 61 m 11,481 ft / 3,499 m 50.86° 58.44° Asphalt 0 ft / 0 m 200 ft / 61 m
24L 200 ft / 61 m 11,481 ft / 3,499 m 230.88° 238.46° Asphalt 0 ft / 0 m 200 ft / 61 m
24R 200 ft / 61 m 13,121 ft / 3,999 m 230.88° 238.46° Asphalt 0 ft / 0 m 200 ft / 61 m

NWWW

Details ICAO NWWW (NOU)
Name Noumea La Tontouta
Region New Caledonia
Timezone Pacific/Noumea (UTC+11.0)
Stats Elevation 51 ft / 16 m (AMSL)
Location -22.014529° 166.213022°
Runways 1
Magnetic Variation 12.334° E

METAR

NWWW 111000Z AUTO VRB01KT 9999 ///CB 25/22 Q1009 BECMG SCT025 SCT045 BKN110

Decode

TAF

TAF NWWW 110500Z 1106/1206 22008KT 9999 SCT025 SCT045 BKN110 BECMG 1107/1110 VRB02KT BECMG 1121/1123 23010KT PROB40 TEMPO 1122/1206 SHRA SCT030TCU

Decode

Destination Runways

ID Width Length Bearing (true) Bearing (mag) Surface Threshold Offset Overrun Length
11 148 ft / 45 m 10,666 ft / 3,251 m 121.21° 108.88° Asphalt 0 ft / 0 m 338 ft / 103 m
29 148 ft / 45 m 10,666 ft / 3,251 m 301.19° 288.86° Asphalt 0 ft / 0 m 354 ft / 108 m

Approach Navaids

Runway Type Ident Frequency Range Bearing (true) Bearing (mag) Slope Elevation
11 Localiser LT 109.90 MHz 18 nm / 33 km 120.69° 108.35° - 52 ft / 16 m (AMSL)
11 Glidescope LT 109.90 MHz 10 nm / 19 km 121.20° 108.87° 3.00° 24 ft / 7 m (AMSL)

Popular Alternatives